Gillette, WY

12:36 AM MDT on July 24, 2014 (GMT -0600)
Johnson County (KBYG) Elev 4967 ft | 44.38 °N, 106.72 °W | Change Station

Current weather conditions updated 43 minutes ago

Clear
Clear
77 °F
Feels Like 77 °F
N
0
Wind Variable Wind from North

Today is forecast to be nearly the same temperature as yesterday.

Today
High -- | Low -- °F
--% Chance of Precip.
Yesterday
High -- | Low -- °F
Precip. -- in
5:40 AM 8:37 PM
Waning Crescent, 6% visible
Pressure 29.80 in
Visibility 10.0 miles
Clouds Clear
Dew Point 51 °F
Humidity 40%
Rainfall 0.00 in
Snow Depth Not available.
UV 0 out of 12
Pollen 6.20 out of 12
Air Quality Not available.
Flu Activity Not available.
METAR KBYG 240553Z AUTO 00000KT 10SM CLR 25/11 A3002 RMK AO2 SLP090 T02500106 10367 20217 58008

More Conditions Fewer Conditions

Pressure 29.80 in
Visibility 10.0 miles
Clouds Clear
Dew Point 51 °F
Humidity 40%
Rainfall 0.00 in
Snow Depth Not available.
UV 0 out of 12
Pollen 6.20 out of 12
Air Quality Not available.
Flu Activity Not available.
METAR KBYG 240553Z AUTO 00000KT 10SM CLR 25/11 A3002 RMK AO2 SLP090 T02500106 10367 20217 58008

More Conditions Fewer Conditions

10-Day Weather Forecast

Almanac

Astronomy

Jul. 24, 2014 Rise Set
Actual Time 5:40 AM MDT 8:37 PM MDT
Civil Twilight 5:06 AM MDT 9:11 PM MDT
Nautical Twilight 4:22 AM MDT 9:55 PM MDT
Astronomical Twilight 3:30 AM MDT 10:46 PM MDT
Moon 3:51 AM MDT 6:52 PM MDT
Length of Visible Light 16h 05m
Length of Day
14h 56m
Tomorrow will be 2m 4s shorter.
Waning Crescent, 6% of the Moon is Illuminated
Today
Waning Crescent
Jul 26
New
Aug 3
First Quarter
Aug 10
Full
Aug 17
Last Quarter

Today's Extremes

State Highs State Lows

Community

WunderPhotos

Upload Photos

1,736,950 photos uploaded!

Nearby

Snow Depth

Station Depth Elevation
Hansen Sawmill 0 in 8360 ft
Bear Trap Meadow 0 in 8200 ft
Sucker Creek 0 in 8880 ft
Burgess Junction 0 in 7880 ft
Tie Creek 0 in 6870 ft

Earthquake Activity

City Distance Mag. Time & Date
No recent earthquake activity has been reported nearby.
Minimum magnitude displayed is 2.5.

Coastal Water Temperatures

Place Temperature
No Stations Reporting

Nearby Weather Stations

Station Location Temp. Heat Index Dew Point Humidity Wind Precip. Elev Updated Type
RAWS ECHETA WY, Gillette, WY 79 °F 80 °F 60 °F 52% East  at  14 mph 0.00 in / hr 4396 ft 11:51 PM MDT MADIS

Show More Stations Show Fewer Stations